RJFR/KKJ METAR and TAF weather

Enter ICAO airport designator
Station Type Date Time Source
RJFR METAR 2021/03/03 20:00 UTC NOAA

RJFR 032000Z VRB01KT 9999 FEW020 BKN/// 06/03 Q1027


Station Type Date Time Source
RJFR Decoded METAR 2021/03/03 20:00 UTC NOAA

Kitakyushu Airport, Japan (RJFR) 33-50N 130-57E 6M
Mar 03, 2021 - 03:00 PM EST / 2021.03.03 2000 UTC
Wind: Variable at 1 MPH (1 KT):0
Visibility: greater than 7 mile(s):0
Sky conditions: mostly cloudy
Temperature: 42 F (6 C)
Dew Point: 37 F (3 C)
Relative Humidity: 81%
Pressure (altimeter): 30.33 in. Hg (1027 hPa)
ob: RJFR 032000Z VRB01KT 9999 FEW020 BKN/// 06/03 Q1027
cycle: 20

Station Type Date Time Source
RJFR TAF 2021/03/03 18:00 UTC NOAA

TAF RJFR 031705Z 0318/0500 12007KT 9999 FEW040
BECMG 0415/0418 07016KT
TEMPO 0415/0500 3000 SHRA BR FEW005 BKN008 BKN015

Example: see airport list